Nearby METAR Reports

 

KRUE - Russellville, Arkansas, USA
Distance from station: ESE 28mi, 45km
Updated: Tue, 12-Dec-2017 2:53am CST
Clear
Clear
 Wind from NW
Wind: NW 14 mph , 22 km/h, Gust: 26 mph , 43 km/h
Temperature: 46°F , 8°C
Wind Chill: 40°F , 4°C
Dew Point: 28°F , -2°C
Humidity: 50%
Barometer: 30.18 inHg , 1022 hPa
Clouds: Clear
Visibility: 10 miles , 16 km
2017/12/12 08:53 KRUE 120853Z AUTO 32012G23KT 10SM CLR 08/M02 A3018 RMK AO2 SLP215 T00831022 53023
KFSM - Fort Smith, Arkansas, USA
Distance from station: W 48mi, 77km
Updated: Tue, 12-Dec-2017 2:53am CST
Clear
Clear
 Wind from NNW
Wind: NNW 17 mph , 28 km/h, Gust: 28 mph , 44 km/h
Temperature: 46°F , 8°C
Wind Chill: 39°F , 4°C
Dew Point: 25°F , -4°C
Humidity: 43%
Barometer: 30.27 inHg , 1025.1 hPa
Clouds: Clear
Visibility: 10 miles , 16 km
2017/12/12 08:53 KFSM 120853Z AUTO 33015G24KT 10SM CLR 08/M04 A3027 RMK AO2 PK WND 35027/0757 SLP249 T00781039 51026 $
 
KFYV - Fayetteville, Arkansas, USA
Distance from station: NW 52mi, 84km
Updated: Tue, 12-Dec-2017 2:53am CST
Few Clouds
Few Clouds
 Wind from NW
Wind: NW 12 mph , 19 km/h
Temperature: 37°F , 3°C
Wind Chill: 29°F , -2°C
Dew Point: 28°F , -2°C
Humidity: 70%
Barometer: 30.26 inHg , 1024.7 hPa
Clouds: Few Clouds
Visibility: 10 miles , 16 km
Cloud details: Few Clouds 3000 ft
2017/12/12 08:53 KFYV 120853Z AUTO 32010KT 10SM FEW030 03/M02 A3026 RMK AO2 SLP247 T00281017 53023
KASG - Springdale Muni, Arkansas, USA
Distance from station: NW 59mi, 95km
Updated: Mon, 11-Dec-2017 8:48pm CST
NOT Current
Clear
Clear
 Wind from NW
Wind: NW 15 mph , 24 km/h, Gust: 23 mph , 37 km/h
Temperature: 50°F , 10°C
Wind Chill: 45°F , 7°C
Dew Point: 25°F , -4°C
Humidity: 37%
Barometer: 30.13 inHg , 1020.3 hPa
Clouds: Clear
Visibility: 10 miles , 16 km
2017/12/12 02:48 KASG 120248Z 32013G20KT 10SM SKC 10/M04 A3013
 
KHRO - Harrison, Arkansas, USA
Distance from station: NNE 60mi, 96km
Updated: Tue, 12-Dec-2017 2:53am CST
Clear
Clear
 Wind from NNW
Wind: NNW 12 mph , 19 km/h, Gust: 21 mph , 33 km/h
Temperature: 37°F , 3°C
Wind Chill: 29°F , -2°C
Dew Point: 25°F , -4°C
Humidity: 60%
Barometer: 30.19 inHg , 1022.4 hPa
Clouds: Clear
Visibility: 10 miles , 16 km
2017/12/12 08:53 KHRO 120853Z AUTO 33010G18KT 10SM CLR 03/M04 A3019 RMK AO2 SLP220 T00331039 53021
KCCA - Clinton Muni, Arkansas, USA
Distance from station: E 61mi, 99km
Updated: Tue, 12-Dec-2017 2:55am CST
Overcast
Overcast
 Wind from NW
Wind: NW 9 mph , 15 km/h, Gust: 16 mph , 26 km/h
Temperature: 48°F , 9°C
Wind Chill: 44°F , 7°C
Dew Point: 32°F , 0°C
Humidity: 54%
Barometer: 30.15 inHg , 1021 hPa
Clouds: Overcast
Visibility: 10 miles , 16 km
Cloud details: Overcast 4800 ft
2017/12/12 08:55 KCCA 120855Z AUTO 31008G14KT 280V340 10SM OVC048 09/M00 A3015 RMK AO2